Quincy, Illinois
Current Conditions -  °F | °C
As of 5:54 PM on Friday 28 Nov 2014 (Local Time) from KUIN Reporting Station
Clear Clear  
Wind Chill: 30°   Ceiling: Unl
Heat Index: 36°   Visibility: 10mi
Dew Point: 31°   Wind: 8mph
Humidity: 82%   Direction: 140°SE
Pressure: 29.85"   Gusts: NA
Location:  39.94°N, 91.39°W
Report Text: KUIN 282354Z AUTO 14007KT 10SM CLR 02/M01 A2985 RMK AO2 SLP116 T00221006 10089 20022 56014
Loading
Personal Weather Stations






























Interactive Weather Map New forecast layout! Learn more

10-Day Weather Forecast

Advertisements
Track Severe Weather on mobile